createdAt,value
2023-10-02T00:02:38.153Z,17.50
2023-10-02T00:05:07.330Z,19.95
2023-10-02T00:07:35.081Z,16.13
2023-10-02T00:10:02.811Z,18.60
2023-10-02T00:12:32.521Z,20.20
2023-10-02T00:15:13.397Z,18.58
2023-10-02T00:17:45.506Z,20.67
2023-10-02T00:20:22.970Z,19.77
2023-10-02T00:22:53.775Z,17.40
2023-10-02T00:25:23.121Z,19.35
2023-10-02T00:27:56.038Z,20.85
2023-10-02T00:30:24.835Z,18.00
2023-10-02T00:35:23.504Z,23.27
2023-10-02T00:37:56.440Z,18.00
2023-10-02T00:40:32.179Z,18.10
2023-10-02T00:43:00.985Z,19.70
2023-10-02T00:51:07.270Z,19.85
2023-10-02T00:53:46.345Z,19.05
2023-10-02T00:56:29.648Z,20.10
2023-10-02T00:59:02.671Z,20.17
2023-10-02T01:01:32.513Z,21.05
2023-10-02T01:04:25.017Z,23.02
2023-10-02T01:06:58.707Z,18.67
2023-10-02T01:09:27.884Z,18.17
2023-10-02T01:11:59.111Z,16.10
2023-10-02T01:14:46.404Z,17.30
2023-10-02T01:17:15.774Z,17.67
2023-10-02T01:19:57.793Z,21.80
2023-10-02T01:22:29.284Z,19.17
2023-10-02T01:25:17.236Z,18.65
2023-10-02T01:27:49.714Z,17.33
2023-10-02T01:30:18.250Z,19.67
2023-10-02T01:33:08.417Z,18.15
2023-10-02T01:35:38.709Z,19.63
2023-10-02T01:38:15.892Z,21.70
2023-10-02T01:40:55.897Z,21.33
2023-10-02T01:43:25.749Z,22.00
2023-10-02T01:45:58.294Z,20.33
2023-10-02T01:48:38.728Z,21.13
2023-10-02T01:53:50.820Z,19.27
2023-10-02T01:56:18.619Z,19.98
2023-10-02T01:58:46.810Z,19.50
2023-10-02T02:01:14.645Z,21.48
2023-10-02T02:03:43.128Z,18.70
2023-10-02T02:06:10.959Z,18.90
2023-10-02T02:08:44.896Z,17.75
2023-10-02T02:11:19.442Z,20.95
2023-10-02T02:13:48.258Z,19.33
2023-10-02T02:16:16.781Z,17.73
2023-10-02T02:18:44.767Z,18.13
2023-10-02T02:21:15.985Z,18.60
2023-10-02T02:23:43.253Z,19.50
2023-10-02T02:26:10.492Z,21.67
2023-10-02T02:28:46.724Z,23.05
2023-10-02T02:31:32.802Z,18.48
2023-10-02T02:34:01.698Z,24.73
2023-10-02T02:36:29.806Z,18.40
2023-10-02T02:39:16.802Z,20.63
2023-10-02T02:41:48.362Z,21.15
2023-10-02T02:44:36.734Z,17.65
2023-10-02T02:47:11.010Z,22.58
2023-10-02T02:49:52.599Z,25.17
2023-10-02T02:52:20.669Z,20.75
2023-10-02T02:55:00.655Z,17.50
2023-10-02T02:57:28.748Z,20.92
2023-10-02T03:00:19.202Z,23.08
2023-10-02T03:02:47.509Z,19.40
2023-10-02T03:05:21.707Z,20.77
2023-10-02T03:07:50.341Z,21.50
2023-10-02T03:10:18.321Z,21.35
2023-10-02T03:12:52.848Z,19.45
2023-10-02T03:20:23.982Z,21.08
2023-10-02T03:22:56.082Z,21.15
2023-10-02T03:25:29.911Z,18.65
2023-10-02T03:27:58.774Z,20.67
2023-10-02T03:30:41.964Z,19.75
2023-10-02T03:33:24.168Z,24.95
2023-10-02T03:36:18.540Z,20.05
2023-10-02T03:38:45.702Z,20.33
2023-10-02T03:41:15.017Z,19.35
2023-10-02T03:43:47.767Z,17.75
2023-10-02T03:46:23.811Z,18.23
2023-10-02T03:49:05.218Z,19.45
2023-10-02T03:51:41.812Z,19.38
2023-10-02T03:54:20.289Z,21.70
2023-10-02T03:56:50.425Z,18.75
2023-10-02T03:59:18.473Z,20.02
2023-10-02T04:01:48.274Z,21.98
2023-10-02T04:04:15.774Z,20.63
2023-10-02T04:06:46.357Z,21.73
2023-10-02T04:09:20.617Z,20.60
2023-10-02T04:11:49.893Z,19.60
2023-10-02T04:14:20.064Z,19.88
2023-10-02T04:16:50.274Z,20.73
2023-10-02T04:19:25.004Z,21.90
2023-10-02T04:26:55.483Z,20.83
2023-10-02T04:29:26.429Z,22.08
2023-10-02T04:32:13.233Z,20.58
2023-10-02T04:37:21.962Z,20.60
2023-10-02T04:39:53.905Z,20.38
2023-10-02T04:42:26.377Z,20.20
2023-10-02T04:44:58.898Z,20.50
2023-10-02T04:47:32.519Z,17.38
2023-10-02T04:50:06.715Z,17.63
2023-10-02T04:52:53.377Z,22.40
2023-10-02T04:55:29.149Z,21.08
2023-10-02T04:57:57.447Z,21.80
2023-10-02T05:00:34.409Z,18.17
2023-10-02T05:03:19.330Z,18.25
2023-10-02T05:05:50.399Z,18.73
2023-10-02T05:08:42.033Z,17.73
2023-10-02T05:11:25.391Z,18.63
2023-10-02T05:13:58.333Z,21.20
2023-10-02T05:16:36.174Z,18.63
2023-10-02T05:19:08.120Z,24.30
2023-10-02T05:21:51.029Z,22.55
2023-10-02T05:24:19.507Z,21.77
2023-10-02T05:26:48.104Z,19.63
2023-10-02T05:29:20.193Z,23.30
2023-10-02T05:31:48.429Z,20.65
2023-10-02T05:34:36.048Z,22.13
2023-10-02T05:37:13.915Z,21.17
2023-10-02T05:39:43.037Z,24.10
2023-10-02T05:42:15.330Z,22.05
2023-10-02T05:47:29.132Z,19.75
2023-10-02T05:49:57.984Z,24.90
2023-10-02T05:52:25.717Z,22.50
2023-10-02T05:54:55.931Z,28.05
2023-10-02T05:57:24.237Z,25.73
2023-10-02T05:59:55.464Z,26.83
2023-10-02T06:02:25.095Z,27.83
2023-10-02T06:05:08.748Z,28.23
2023-10-02T06:07:45.236Z,23.38
2023-10-02T06:10:33.657Z,22.77
2023-10-02T06:13:06.976Z,25.08
2023-10-02T06:15:44.531Z,24.55
2023-10-02T06:18:12.021Z,22.42
2023-10-02T06:20:59.041Z,22.75
2023-10-02T06:23:26.452Z,25.25
2023-10-02T06:25:54.316Z,22.88
2023-10-02T06:28:25.231Z,23.20
2023-10-02T06:30:53.153Z,22.77
2023-10-02T06:33:23.424Z,25.70
2023-10-02T06:36:01.585Z,21.83
2023-10-02T06:38:31.309Z,23.60
2023-10-02T06:41:00.174Z,21.63
2023-10-02T06:43:31.444Z,22.58
2023-10-02T06:46:09.311Z,27.02
2023-10-02T06:48:46.887Z,22.27
2023-10-02T06:51:17.770Z,22.45
2023-10-02T06:53:45.104Z,23.48
2023-10-02T06:56:12.899Z,23.00
2023-10-02T06:58:58.255Z,22.45
2023-10-02T07:01:29.783Z,23.80
2023-10-02T07:03:58.141Z,20.60
2023-10-02T07:06:26.294Z,21.75
2023-10-02T07:09:12.902Z,25.70
2023-10-02T07:11:41.593Z,26.17
2023-10-02T07:14:10.697Z,23.73
2023-10-02T07:16:38.710Z,22.05
2023-10-02T07:19:06.299Z,22.67
2023-10-02T07:21:33.790Z,25.02
2023-10-02T07:24:04.659Z,22.88
2023-10-02T07:26:52.737Z,25.88
2023-10-02T07:29:20.689Z,23.30
2023-10-02T07:31:48.553Z,22.52
2023-10-02T07:34:17.414Z,21.58
2023-10-02T07:36:47.673Z,20.90
2023-10-02T07:39:34.026Z,22.15
2023-10-02T07:42:01.776Z,25.48
2023-10-02T07:44:38.227Z,24.05
2023-10-02T07:47:18.058Z,22.67
2023-10-02T07:49:48.943Z,23.40
2023-10-02T07:52:28.286Z,23.17
2023-10-02T07:54:59.926Z,22.95
2023-10-02T07:57:34.132Z,22.67
2023-10-02T08:00:26.095Z,22.10
2023-10-02T08:02:53.380Z,26.10
2023-10-02T08:05:21.690Z,21.70
2023-10-02T08:10:16.392Z,22.25
2023-10-02T08:12:56.848Z,25.92
2023-10-02T08:15:27.786Z,23.83
2023-10-02T08:17:55.805Z,22.65
2023-10-02T08:20:33.613Z,21.52
2023-10-02T08:23:03.569Z,22.40
2023-10-02T08:25:34.457Z,23.25
2023-10-02T08:28:01.866Z,25.63
2023-10-02T08:30:33.030Z,22.63
2023-10-02T08:33:10.355Z,23.45
2023-10-02T08:35:49.292Z,27.45
2023-10-02T08:38:26.560Z,23.38
2023-10-02T08:40:58.908Z,24.35
2023-10-02T08:43:26.758Z,24.05
2023-10-02T08:45:54.141Z,22.80
2023-10-02T08:48:22.515Z,22.15
2023-10-02T08:50:50.681Z,24.70
2023-10-02T08:53:21.443Z,22.17
2023-10-02T08:55:49.271Z,23.50
2023-10-02T08:58:23.980Z,25.27
2023-10-02T09:01:10.493Z,23.67
2023-10-02T09:06:29.737Z,24.33
2023-10-02T09:09:15.899Z,21.08
2023-10-02T09:11:43.648Z,23.02
2023-10-02T09:14:20.363Z,25.13
2023-10-02T09:16:48.969Z,25.40
2023-10-02T09:19:31.567Z,23.65
2023-10-02T09:22:08.882Z,25.10
2023-10-02T09:24:36.248Z,26.00
2023-10-02T09:27:22.709Z,26.35
2023-10-02T09:29:54.188Z,23.25
2023-10-02T09:32:26.458Z,23.13
2023-10-02T09:35:59.595Z,24.15
2023-10-02T09:38:07.978Z,26.58
2023-10-02T09:40:54.908Z,28.70
2023-10-02T09:43:29.484Z,25.80
2023-10-02T09:45:59.932Z,25.00
2023-10-02T09:48:48.639Z,25.55
2023-10-02T09:51:21.203Z,22.15
2023-10-02T09:54:03.803Z,21.52
2023-10-02T09:56:36.146Z,25.17
2023-10-02T09:59:18.772Z,23.88
2023-10-02T10:02:31.815Z,24.85
2023-10-02T10:05:12.485Z,22.95
2023-10-02T10:08:14.714Z,25.33
2023-10-02T10:10:50.224Z,23.40
2023-10-02T10:13:34.561Z,23.48
2023-10-02T10:16:20.452Z,24.00
2023-10-02T10:19:05.748Z,25.38
2023-10-02T10:21:59.898Z,22.25
2023-10-02T10:24:34.531Z,20.20
2023-10-02T10:27:05.090Z,24.33
2023-10-02T10:30:05.114Z,22.08
2023-10-02T10:32:32.989Z,22.55
2023-10-02T10:35:13.822Z,20.52
2023-10-02T10:37:42.348Z,21.35
2023-10-02T10:40:29.705Z,22.88
2023-10-02T10:43:06.927Z,22.23
2023-10-02T10:45:35.184Z,19.83
2023-10-02T10:48:03.330Z,21.77
2023-10-02T10:53:23.202Z,20.90
2023-10-02T10:55:56.394Z,23.10
2023-10-02T10:58:36.872Z,22.55
2023-10-02T11:01:08.568Z,23.98
2023-10-02T11:03:39.889Z,19.05
2023-10-02T11:06:10.874Z,23.92
2023-10-02T11:08:39.284Z,23.48
2023-10-02T11:11:20.566Z,24.35
2023-10-02T11:13:52.834Z,19.60
2023-10-02T11:16:24.103Z,20.90
2023-10-02T11:19:15.493Z,22.55
2023-10-02T11:22:02.521Z,21.42
2023-10-02T11:24:30.168Z,21.23
2023-10-02T11:27:08.934Z,22.13
2023-10-02T11:29:42.901Z,27.27
2023-10-02T11:32:21.245Z,21.15
2023-10-02T11:34:49.428Z,20.38
2023-10-02T11:39:44.489Z,20.73
2023-10-02T11:42:11.842Z,20.65
2023-10-02T11:44:41.191Z,19.77
2023-10-02T11:47:12.085Z,19.63
2023-10-02T11:49:41.934Z,21.50
2023-10-02T11:52:09.214Z,27.05
2023-10-02T11:54:42.582Z,20.17
2023-10-02T11:57:10.506Z,24.17
2023-10-02T11:59:49.129Z,22.08
2023-10-02T12:02:55.001Z,20.52
2023-10-02T12:05:36.633Z,22.77
2023-10-02T12:08:04.790Z,18.73
2023-10-02T12:10:32.700Z,19.23
2023-10-02T12:13:03.193Z,20.80
2023-10-02T12:15:30.439Z,22.33
2023-10-02T12:17:58.048Z,19.67
2023-10-02T12:20:25.350Z,21.50
2023-10-02T12:22:52.777Z,21.48
2023-10-02T12:25:20.177Z,21.60
2023-10-02T12:27:48.149Z,24.10
2023-10-02T12:30:15.384Z,21.95
2023-10-02T12:32:43.503Z,20.58
2023-10-02T12:35:11.002Z,23.73
2023-10-02T12:37:38.313Z,20.05
2023-10-02T12:40:13.131Z,21.48
2023-10-02T12:42:40.569Z,23.60
2023-10-02T12:45:08.282Z,22.60
2023-10-02T12:47:39.716Z,26.92
2023-10-02T12:50:12.550Z,21.25
2023-10-02T12:52:42.270Z,23.45
2023-10-02T12:55:10.691Z,22.48
2023-10-02T12:57:40.995Z,25.27
2023-10-02T13:00:18.324Z,24.85
2023-10-02T13:02:46.493Z,24.65
2023-10-02T13:05:14.315Z,21.13
2023-10-02T13:07:42.753Z,22.75
2023-10-02T13:10:10.256Z,24.52
2023-10-02T13:13:17.791Z,20.30
2023-10-02T13:15:45.104Z,26.17
2023-10-02T13:18:12.994Z,21.63
2023-10-02T13:20:40.300Z,25.30
2023-10-02T13:23:07.998Z,23.85
2023-10-02T13:25:36.201Z,24.63
2023-10-02T13:28:04.317Z,23.95
2023-10-02T13:30:31.633Z,22.25
2023-10-02T13:33:01.053Z,24.95
2023-10-02T13:35:28.686Z,23.73
2023-10-02T13:37:56.078Z,20.83
2023-10-02T13:40:33.304Z,26.27
2023-10-02T13:43:00.904Z,23.77
2023-10-02T13:45:28.841Z,26.27
2023-10-02T13:50:23.632Z,22.23
2023-10-02T13:52:54.359Z,22.85
2023-10-02T13:55:23.886Z,23.00
2023-10-02T13:57:51.956Z,24.67
2023-10-02T14:00:21.434Z,22.67
2023-10-02T14:02:49.525Z,23.17
2023-10-02T14:05:17.358Z,22.90
2023-10-02T14:10:16.039Z,28.45
2023-10-02T14:12:44.410Z,24.15
2023-10-02T14:15:17.743Z,24.40
2023-10-02T14:17:46.187Z,20.58
2023-10-02T14:22:49.570Z,21.40
2023-10-02T14:25:25.402Z,20.17
2023-10-02T14:27:53.668Z,23.23
2023-10-02T14:30:24.969Z,22.95
2023-10-02T14:32:52.645Z,20.75
2023-10-02T14:35:20.772Z,21.02
2023-10-02T14:37:53.538Z,22.00
2023-10-02T14:40:21.224Z,21.73
2023-10-02T14:42:51.878Z,21.02
2023-10-02T14:45:19.142Z,21.20
2023-10-02T14:47:46.568Z,18.60
2023-10-02T14:50:14.541Z,21.42
2023-10-02T14:52:42.211Z,17.13
2023-10-02T14:55:18.757Z,23.27
2023-10-02T14:57:46.939Z,21.58
2023-10-02T15:00:15.465Z,30.27
2023-10-02T15:02:45.986Z,17.58
2023-10-02T15:05:16.815Z,18.63
2023-10-02T15:07:47.647Z,18.65
2023-10-02T15:10:17.505Z,24.98
2023-10-02T15:12:49.198Z,16.52
2023-10-02T15:15:16.593Z,19.30
2023-10-02T15:17:44.615Z,19.02
2023-10-02T15:20:15.593Z,18.60
2023-10-02T15:22:44.115Z,20.30
2023-10-02T15:25:15.424Z,19.65
2023-10-02T15:27:49.732Z,18.23
2023-10-02T15:30:17.950Z,20.42
2023-10-02T15:33:04.834Z,21.15
2023-10-02T15:35:32.189Z,19.92
2023-10-02T15:38:02.856Z,21.35
2023-10-02T15:40:34.711Z,18.15
2023-10-02T15:43:01.965Z,21.77
2023-10-02T15:45:29.184Z,23.25
2023-10-02T15:47:56.872Z,20.48
2023-10-02T15:50:25.180Z,22.73
2023-10-02T15:52:53.181Z,19.98
2023-10-02T15:55:21.288Z,21.17
2023-10-02T16:00:23.210Z,21.45
2023-10-02T16:02:58.921Z,21.90
2023-10-02T16:05:28.772Z,22.38
2023-10-02T16:07:57.544Z,20.83
2023-10-02T16:10:25.980Z,23.35
2023-10-02T16:12:55.437Z,21.95
2023-10-02T16:15:29.888Z,20.65
2023-10-02T16:17:58.989Z,23.25
2023-10-02T16:20:27.683Z,18.83
2023-10-02T16:22:55.707Z,21.80
2023-10-02T16:25:22.983Z,21.25
2023-10-02T16:27:51.382Z,19.13
2023-10-02T16:30:19.357Z,23.35
2023-10-02T16:35:18.124Z,18.67
2023-10-02T16:37:45.786Z,21.67
2023-10-02T16:40:15.098Z,22.80
2023-10-02T16:42:42.518Z,25.38
2023-10-02T16:45:19.666Z,22.92
2023-10-02T16:47:50.806Z,24.67
2023-10-02T16:50:21.689Z,23.80
2023-10-02T16:52:49.537Z,22.80
2023-10-02T16:55:20.679Z,25.50
2023-10-02T16:57:49.657Z,20.23
2023-10-02T17:00:21.015Z,24.98
2023-10-02T17:02:49.206Z,21.75
2023-10-02T17:05:20.706Z,20.92
2023-10-02T17:07:51.497Z,21.20
2023-10-02T17:10:22.211Z,21.83
2023-10-02T17:12:51.552Z,21.08
2023-10-02T17:15:20.074Z,22.38
2023-10-02T17:17:49.358Z,23.38
2023-10-02T17:20:18.419Z,23.83
2023-10-02T17:22:46.678Z,22.90
2023-10-02T17:25:15.532Z,21.40
2023-10-02T17:27:43.782Z,21.10
2023-10-02T17:30:13.542Z,24.17
2023-10-02T17:32:41.298Z,23.27
2023-10-02T17:35:10.687Z,21.05
2023-10-02T17:37:41.229Z,23.40
2023-10-02T17:40:12.104Z,22.83
2023-10-02T17:42:39.941Z,23.23
2023-10-02T17:45:08.449Z,20.27
2023-10-02T17:47:39.103Z,20.17
2023-10-02T17:50:08.018Z,21.35
2023-10-02T17:52:35.679Z,23.63
2023-10-02T17:55:03.847Z,20.20
2023-10-02T17:57:31.259Z,20.77
2023-10-02T18:00:02.206Z,23.30
2023-10-02T18:02:29.968Z,21.05
2023-10-02T18:04:57.470Z,19.30
2023-10-02T18:07:24.934Z,22.60
2023-10-02T18:09:52.260Z,20.65
2023-10-02T18:12:19.599Z,24.23
2023-10-02T18:14:47.187Z,22.67
2023-10-02T18:17:14.658Z,23.15
2023-10-02T18:19:42.307Z,24.75
2023-10-02T18:22:12.465Z,23.13
2023-10-02T18:24:40.917Z,19.48
2023-10-02T18:27:08.230Z,20.05
2023-10-02T18:29:38.768Z,25.23
2023-10-02T18:32:06.284Z,23.08
2023-10-02T18:34:43.651Z,21.42
2023-10-02T18:37:12.975Z,21.30
2023-10-02T18:39:40.336Z,21.25
2023-10-02T18:42:07.826Z,19.75
2023-10-02T18:44:35.963Z,26.27
2023-10-02T18:47:03.752Z,23.17
2023-10-02T18:49:34.172Z,23.20
2023-10-02T18:52:02.969Z,22.65
2023-10-02T18:54:30.423Z,25.13
2023-10-02T18:56:59.715Z,25.08
2023-10-02T18:59:27.219Z,22.73
2023-10-02T19:01:54.623Z,21.88
2023-10-02T19:04:24.675Z,20.70
2023-10-02T19:06:52.106Z,21.45
2023-10-02T19:09:38.739Z,20.25
2023-10-02T19:12:06.275Z,20.10
2023-10-02T19:14:37.045Z,20.60
2023-10-02T19:17:05.048Z,25.33
2023-10-02T19:19:32.414Z,22.42
2023-10-02T19:21:59.601Z,25.55
2023-10-02T19:24:26.797Z,25.10
2023-10-02T19:26:54.096Z,26.60
2023-10-02T19:29:21.306Z,23.02
2023-10-02T19:31:50.496Z,23.00
2023-10-02T19:34:19.440Z,24.17
2023-10-02T19:36:46.872Z,23.23
2023-10-02T19:39:14.173Z,24.48
2023-10-02T19:41:41.849Z,23.98
2023-10-02T19:44:09.415Z,25.73
2023-10-02T19:46:37.350Z,25.88
2023-10-02T19:49:05.323Z,25.52
2023-10-02T19:51:32.571Z,24.52
2023-10-02T19:54:00.193Z,23.42
2023-10-02T19:56:27.511Z,21.33
2023-10-02T19:58:55.030Z,26.48
2023-10-02T20:01:22.387Z,24.77
2023-10-02T20:03:49.721Z,28.27
2023-10-02T20:06:20.400Z,29.65
2023-10-02T20:08:47.965Z,25.38
2023-10-02T20:11:15.741Z,31.33
2023-10-02T20:13:43.559Z,31.67
2023-10-02T20:16:10.948Z,30.50
2023-10-02T20:18:38.778Z,31.77
2023-10-02T20:21:06.474Z,31.70
2023-10-02T20:23:45.641Z,34.58
2023-10-02T20:26:19.793Z,30.00
2023-10-02T20:28:47.057Z,38.03
2023-10-02T20:31:15.168Z,46.90
2023-10-02T20:33:43.000Z,43.47
2023-10-02T20:36:22.439Z,42.95
2023-10-02T20:38:49.988Z,40.10
2023-10-02T20:41:26.065Z,40.25
2023-10-02T20:43:53.364Z,41.80
2023-10-02T20:46:20.660Z,48.15
2023-10-02T20:48:47.937Z,48.83
2023-10-02T20:51:15.274Z,47.67
2023-10-02T20:53:42.657Z,44.55
2023-10-02T20:56:10.910Z,44.08
2023-10-02T21:01:08.934Z,44.55
2023-10-02T21:03:36.582Z,43.13
2023-10-02T21:06:05.084Z,38.75
2023-10-02T21:08:32.784Z,39.78
2023-10-02T21:11:00.023Z,39.42
2023-10-02T21:13:27.351Z,39.38
2023-10-02T21:15:54.601Z,43.83
2023-10-02T21:18:24.532Z,38.25
2023-10-02T21:20:52.902Z,38.30
2023-10-02T21:23:21.267Z,41.65
2023-10-02T21:25:49.184Z,38.15
2023-10-02T21:28:16.825Z,40.03
2023-10-02T21:30:45.758Z,32.60
2023-10-02T21:33:15.130Z,36.17
2023-10-02T21:35:42.564Z,37.95
2023-10-02T21:38:10.943Z,38.75
2023-10-02T21:43:05.289Z,39.97
2023-10-02T21:45:32.537Z,37.40
2023-10-02T21:48:08.658Z,33.67
2023-10-02T21:50:36.309Z,40.40
2023-10-02T21:53:05.016Z,37.42
2023-10-02T21:55:35.147Z,35.25
2023-10-02T21:58:02.619Z,36.60
2023-10-02T22:00:50.160Z,41.08
2023-10-02T22:03:21.879Z,37.08
2023-10-02T22:05:49.391Z,35.90
2023-10-02T22:08:18.962Z,47.08
2023-10-02T22:10:46.254Z,34.90
2023-10-02T22:13:17.566Z,39.22
2023-10-02T22:15:44.883Z,37.28
2023-10-02T22:18:14.293Z,39.20
2023-10-02T22:20:45.380Z,42.08
2023-10-02T22:23:16.315Z,36.58
2023-10-02T22:25:44.003Z,36.10
2023-10-02T22:28:11.871Z,33.47
2023-10-02T22:30:40.247Z,37.28
2023-10-02T22:35:37.263Z,38.15
2023-10-02T22:38:05.778Z,38.53
2023-10-02T22:40:33.058Z,37.38
2023-10-02T22:43:07.179Z,40.00
2023-10-02T22:45:36.416Z,36.88
2023-10-02T22:48:04.667Z,37.60
2023-10-02T22:53:03.671Z,36.25
2023-10-02T22:55:31.109Z,35.40
2023-10-02T22:58:02.088Z,37.83
2023-10-02T23:00:31.192Z,37.50
2023-10-02T23:03:01.633Z,39.80
2023-10-02T23:05:29.986Z,39.45
2023-10-02T23:10:27.196Z,38.00
2023-10-02T23:12:55.847Z,37.15
2023-10-02T23:15:24.760Z,33.55
2023-10-02T23:17:53.101Z,39.90
2023-10-02T23:22:52.563Z,40.30
2023-10-02T23:25:22.482Z,34.33
2023-10-02T23:27:52.616Z,39.63
2023-10-02T23:30:23.941Z,35.67
2023-10-02T23:32:55.499Z,35.65
2023-10-02T23:35:24.632Z,32.15
2023-10-02T23:37:52.781Z,35.10
2023-10-02T23:40:21.508Z,39.55
2023-10-02T23:42:54.046Z,38.20
2023-10-02T23:45:25.984Z,33.47
2023-10-02T23:48:01.542Z,38.78
2023-10-02T23:50:33.244Z,32.78
2023-10-02T23:53:03.862Z,37.80
2023-10-02T23:55:36.893Z,37.67
2023-10-02T23:58:04.380Z,34.92
